Latest Weather Observations for Darwin

IDD60801

Issued at 1:35 pm CST Monday 21 April 2014 (issued every 30 minutes, with the page automatically refreshed every 10 minutes)

About weather observations | Map of weather stations | Latest weather observations for NT | Other Formats
Station Details ID: 014015 Name: DARWIN AIRPORT Lat: -12.42 Lon: 130.89 Height: 30.4 m
Data from the previous 72 hours. | See also: Recent months at Darwin
Date/Time
CST
Temp
°C
App
Temp
°C
Dew
Point
Rel
Hum
%
Delta-T
°C
Wind Press
QNH
hPa
Press
MSL
hPa
Rain
since 9 am
mm
Dir
 
Spd
km/h
Gust
km/h
Spd
kts
Gust
kts
21/01:30pm 31.9 28.8 16.5 39 9.7 E 28 35 15 19 1009.5 - 0.0
21/01:00pm 31.7 29.6 17.1 41 9.3 E 24 33 13 18 1009.6 - 0.0
21/12:30pm 31.6 29.0 17.9 44 8.8 E 28 37 15 20 1010.0 - 0.0
21/12:00pm 31.3 27.8 16.5 41 9.3 E 30 39 16 21 1010.5 1010.2 0.0
21/11:30am 31.1 27.6 17.8 45 8.5 E 33 43 18 23 1010.7 - 0.0
21/11:00am 30.7 27.8 17.9 46 8.2 E 30 39 16 21 1011.0 - 0.0
21/10:30am 30.0 28.3 18.9 51 7.2 E 26 32 14 17 1011.2 - 0.0
21/10:00am 29.0 28.0 19.7 57 6.1 E 24 33 13 18 1011.2 - 0.0
21/09:30am 28.4 28.4 21.0 64 4.9 E 22 28 12 15 1011.0 - 0.0
21/09:00am 27.0 28.8 21.9 73 3.4 ESE 15 19 8 10 1010.9 1010.6 0.2
21/08:30am 26.3 27.6 21.7 76 3.1 SE 17 20 9 11 1010.9 - 0.2
21/08:00am 25.1 27.3 21.8 82 2.2 SE 13 17 7 9 1010.8 - 0.2
21/07:30am 24.7 26.6 21.4 82 2.2 SE 13 15 7 8 1010.4 - 0.2
21/07:00am 24.5 26.4 21.3 82 2.1 ESE 13 15 7 8 1010.1 - 0.2
21/06:30am 24.6 26.9 21.4 82 2.1 ESE 11 15 6 8 1009.8 - 0.2
21/06:00am 24.7 27.1 21.5 82 2.1 ESE 11 13 6 7 1009.4 1009.1 0.2
21/05:30am 24.6 27.2 21.9 85 1.8 SE 11 13 6 7 1009.3 - 0.2
21/05:00am 24.4 27.6 22.3 88 1.4 ESE 9 11 5 6 1009.1 - 0.2
21/04:30am 24.5 27.7 22.4 88 1.4 ESE 9 11 5 6 1009.2 - 0.2
21/04:00am 24.5 27.9 22.7 90 1.2 SE 9 9 5 5 1009.4 - 0.2
21/03:30am 25.1 28.6 22.1 83 2.0 S 7 9 4 5 1009.4 - 0.2
21/03:00am 25.6 28.1 21.7 79 2.6 ESE 11 15 6 8 1009.3 1009.0 0.2
21/02:30am 25.6 28.2 22.0 80 2.4 E 11 13 6 7 1009.5 - 0.2
21/02:00am 25.9 29.1 22.3 80 2.4 ESE 9 11 5 6 1009.8 - 0.2
21/01:30am 26.1 29.5 22.7 81 2.3 ESE 9 11 5 6 1009.9 - 0.2
21/01:00am 26.1 29.5 22.7 81 2.3 E 9 11 5 6 1010.2 - 0.2
21/12:30am 26.7 29.3 22.6 78 2.8 E 13 17 7 9 1010.5 - 0.2
21/12:00am 26.9 28.5 22.8 78 2.8 ENE 19 30 10 16 1010.7 1010.4 0.2
 
Date/Time
CST
Temp
°C
App
Temp
°C
Dew
Point
Rel
Hum
%
Delta-T
°C
Wind Press
QNH
hPa
Press
MSL
hPa
Rain
since 9 am
mm
Dir
 
Spd
km/h
Gust
km/h
Spd
kts
Gust
kts
20/11:30pm 27.1 28.3 23.9 82 2.2 ENE 24 30 13 16 1010.7 - 0.2
20/11:00pm 26.3 31.4 24.6 90 1.2 NE 6 7 3 4 1010.1 - 0.2
20/10:30pm 26.4 31.6 24.8 91 1.1 NE 6 6 3 3 1010.1 - 0.2
20/10:00pm 26.6 31.5 24.6 89 1.4 ENE 7 9 4 5 1010.4 - 0.2
20/09:30pm 27.1 32.3 24.2 84 2.0 NE 4 6 2 3 1010.2 - 0.2
20/09:00pm 27.4 31.7 24.2 83 2.2 NNE 9 13 5 7 1010.0 1009.7 0.2
20/08:30pm 27.9 32.0 24.5 82 2.4 NNE 11 13 6 7 1009.9 - 0.2
20/08:00pm 28.4 32.7 24.2 78 2.9 NNE 9 13 5 7 1009.6 - 0.2
20/07:30pm 28.9 33.1 24.1 75 3.3 N 9 13 5 7 1009.3 - 0.2
20/07:00pm 29.1 33.1 23.7 72 3.7 NNE 9 15 5 8 1009.2 - 0.2
20/06:30pm 29.9 32.5 22.7 65 4.9 NNE 13 15 7 8 1008.8 - 0.2
20/06:00pm 31.3 32.9 20.8 53 7.0 E 13 15 7 8 1008.4 1008.1 0.2
20/05:30pm 31.8 32.7 20.0 49 7.8 E 15 19 8 10 1008.2 - 0.2
20/05:00pm 32.2 32.9 20.4 49 7.9 E 17 24 9 13 1007.8 - 0.2
20/04:30pm 32.3 32.2 19.9 48 8.2 E 20 32 11 17 1007.6 - 0.2
20/04:00pm 32.4 32.4 19.7 47 8.4 E 19 30 10 16 1007.5 - 0.2
20/03:30pm 32.6 31.7 19.8 46 8.5 E 24 32 13 17 1007.5 - 0.2
20/03:00pm 32.1 31.2 19.1 46 8.5 E 22 30 12 16 1007.7 1007.4 0.2
20/02:30pm 32.0 32.0 19.7 48 8.1 E 19 28 10 15 1008.0 - 0.2
20/02:00pm 31.9 30.3 19.1 46 8.4 E 26 33 14 18 1008.3 - 0.2
20/01:30pm 31.5 31.3 19.8 49 7.7 E 20 30 11 16 1008.9 - 0.2
20/01:00pm 31.5 31.6 20.4 51 7.4 ESE 20 30 11 16 1009.2 - 0.2
20/12:30pm 31.1 30.8 20.4 53 7.1 E 22 30 12 16 1009.5 - 0.2
20/12:00pm 30.3 29.7 19.8 53 6.9 E 22 30 12 16 1010.0 1009.7 0.2
20/11:30am 29.7 28.7 19.6 54 6.6 E 24 33 13 18 1010.5 - 0.2
20/11:00am 29.9 27.9 20.0 55 6.5 E 30 37 16 20 1011.0 - 0.2
20/10:30am 29.3 27.6 19.9 57 6.2 E 28 35 15 19 1011.2 - 0.2
20/10:00am 28.8 27.7 20.3 60 5.6 ESE 26 32 14 17 1011.2 - 0.2
20/09:30am 28.0 28.5 21.2 66 4.5 ESE 20 28 11 15 1011.1 - 0.2
20/09:00am 26.8 27.6 21.4 72 3.6 ESE 19 24 10 13 1010.9 1010.6 9.0
20/08:30am 25.8 27.2 21.9 79 2.6 SE 17 22 9 12 1010.7 - 9.0
20/08:00am 24.7 26.2 22.0 85 1.8 SE 17 26 9 14 1010.6 - 9.0
20/07:30am 24.1 25.8 21.7 86 1.6 ESE 15 20 8 11 1010.2 - 9.0
20/07:00am 23.6 25.2 21.5 88 1.4 ESE 15 19 8 10 1009.8 - 9.0
20/06:30am 23.4 25.8 21.6 90 1.2 SE 11 13 6 7 1009.7 - 9.0
20/06:00am 23.2 25.3 21.7 91 1.0 ESE 13 15 7 8 1009.4 1009.1 9.0
20/05:30am 23.2 25.2 21.5 90 1.1 ESE 13 15 7 8 1009.1 - 9.0
20/05:00am 23.2 26.0 21.5 90 1.1 ESE 9 13 5 7 1009.0 - 9.0
20/04:30am 23.2 25.3 21.7 91 1.0 SE 13 15 7 8 1009.1 - 9.0
20/04:00am 23.5 24.7 21.4 88 1.4 SE 17 20 9 11 1009.0 - 9.0
20/03:30am 23.7 25.3 21.4 87 1.5 SSE 15 20 8 11 1008.9 - 9.0
20/03:00am 23.8 25.1 21.7 88 1.4 SE 17 20 9 11 1009.1 1008.8 9.0
20/02:30am 23.8 25.1 21.7 88 1.4 SE 17 20 9 11 1009.3 - 9.0
20/02:00am 23.7 25.8 21.7 88 1.3 SE 13 15 7 8 1009.7 - 9.0
20/01:30am 23.6 26.0 21.5 88 1.4 SE 11 15 6 8 1010.0 - 9.0
20/01:00am 24.1 26.4 21.4 85 1.8 E 11 13 6 7 1010.5 - 9.0
20/12:30am 24.1 26.5 21.5 85 1.7 E 11 13 6 7 1010.7 - 9.0
20/12:00am 24.4 25.9 21.2 82 2.1 E 15 17 8 9 1011.1 1010.8 9.0
 
Date/Time
CST
Temp
°C
App
Temp
°C
Dew
Point
Rel
Hum
%
Delta-T
°C
Wind Press
QNH
hPa
Press
MSL
hPa
Rain
since 9 am
mm
Dir
 
Spd
km/h
Gust
km/h
Spd
kts
Gust
kts
19/11:30pm 24.8 25.2 21.0 79 2.5 E 20 26 11 14 1011.2 - 9.0
19/11:00pm 25.2 25.2 20.9 77 2.8 E 22 30 12 16 1011.6 - 9.0
19/10:30pm 25.6 25.0 21.2 76 2.9 E 26 35 14 19 1011.5 - 9.0
19/10:00pm 25.4 25.8 23.2 88 1.5 E 26 30 14 16 1011.4 - 9.0
19/09:30pm 25.5 26.6 23.1 86 1.6 ENE 22 30 12 16 1011.1 - 9.0
19/09:00pm 25.2 26.8 23.3 89 1.3 ENE 20 24 11 13 1010.9 1010.6 9.0
19/08:30pm 25.2 26.3 23.0 87 1.5 ENE 22 30 12 16 1010.7 - 9.0
19/08:00pm 25.5 26.8 23.4 88 1.4 NE 22 30 12 16 1010.4 - 9.0
19/07:30pm 25.2 27.2 23.6 91 1.1 NE 19 24 10 13 1010.0 - 9.0
19/07:00pm 24.6 28.0 23.4 93 0.8 NE 11 15 6 8 1009.1 - 9.0
19/06:38pm 24.0 25.1 22.4 91 1.1 ENE 20 26 11 14 1008.8 - 9.0
19/06:30pm 23.9 23.7 22.7 93 0.8 NE 28 37 15 20 1009.1 - 8.6
19/06:24pm 24.0 22.7 22.5 91 1.0 ENE 33 37 18 20 1009.0 - 8.4
19/06:17pm 23.9 21.1 22.4 91 1.0 ESE 41 59 22 32 1009.1 - 6.8
19/06:10pm 25.0 22.6 22.6 86 1.6 ESE 39 50 21 27 1009.4 - 2.0
19/06:06pm 27.7 28.5 22.5 73 3.5 NE 22 35 12 19 1009.0 - 0.2
19/06:00pm 30.2 31.9 23.4 67 4.7 NNE 20 26 11 14 1008.6 1008.3 0.2
19/05:30pm 30.9 32.6 23.4 64 5.2 NNE 20 28 11 15 1007.8 - 0.2
19/05:00pm 32.0 33.8 23.2 59 6.1 NNE 19 22 10 12 1007.6 - 0.2
19/04:30pm 32.7 33.7 21.8 52 7.4 NNE 19 28 10 15 1007.4 - 0.2
19/04:00pm 32.4 33.2 20.6 49 7.9 E 17 20 9 11 1007.4 - 0.2
19/03:30pm 33.0 33.3 20.4 47 8.4 ENE 19 26 10 14 1007.4 - 0.2
19/03:00pm 32.6 32.3 20.3 48 8.2 ENE 22 32 12 17 1007.4 1007.1 0.2
19/02:30pm 32.7 33.6 20.8 49 8.0 ENE 17 22 9 12 1007.8 - 0.2
19/02:00pm 32.4 32.6 20.6 49 7.9 E 20 30 11 16 1008.2 - 0.2
19/01:30pm 32.0 30.8 20.8 51 7.5 ENE 28 33 15 18 1008.6 - 0.2
19/01:00pm 31.7 32.3 21.3 54 7.0 E 20 26 11 14 1009.2 - 0.2
19/12:30pm 31.1 32.1 22.1 58 6.1 ENE 20 30 11 16 1009.7 - 0.2
19/12:00pm 30.5 30.0 21.4 58 6.1 E 26 33 14 18 1010.3 1010.0 0.2
19/11:30am 29.9 28.9 21.2 59 5.8 E 28 33 15 18 1011.0 - 0.2
19/11:00am 29.4 29.8 21.7 63 5.2 E 22 28 12 15 1011.5 - 0.2
19/10:30am 29.1 29.9 21.8 64 4.9 E 20 28 11 15 1011.7 - 0.2
19/10:00am 28.7 30.0 22.7 70 4.1 E 20 26 11 14 1011.7 - 0.2
19/09:30am 27.6 28.6 22.1 72 3.7 E 20 26 11 14 1011.7 - 0.0
19/09:00am 26.9 28.5 22.1 75 3.2 E 17 22 9 12 1011.6 1011.3 3.4
19/08:30am 26.0 27.8 22.6 81 2.3 ESE 17 24 9 13 1011.6 - 3.4
19/08:00am 25.1 27.4 22.7 86 1.6 ESE 15 19 8 10 1011.6 - 3.4
19/07:30am 24.5 27.2 22.9 91 1.1 E 13 17 7 9 1011.4 - 3.4
19/07:00am 23.6 27.1 22.9 96 0.5 ESE 9 15 5 8 1011.2 - 3.4
19/06:30am 23.6 26.8 23.0 96 0.4 ESE 11 13 6 7 1011.0 - 3.4
19/06:00am 23.7 26.5 23.0 96 0.5 ESE 13 15 7 8 1010.9 1010.6 3.4
19/05:30am 23.7 26.9 23.0 96 0.5 SE 11 15 6 8 1010.6 - 3.4
19/05:00am 24.0 26.8 23.0 94 0.7 ESE 13 15 7 8 1010.4 - 3.4
19/04:30am 24.0 27.2 23.0 94 0.7 ESE 11 13 6 7 1010.2 - 3.4
19/04:00am 24.0 26.8 23.0 94 0.7 ESE 13 15 7 8 1010.2 - 3.4
19/03:30am 24.2 28.3 23.0 93 0.8 ESE 6 7 3 4 1010.5 - 3.4
19/03:00am 24.2 27.8 23.0 93 0.8 E 9 11 5 6 1010.5 1010.2 3.4
19/02:30am 24.3 27.5 23.1 93 0.8 E 11 15 6 8 1010.9 - 3.4
19/02:00am 24.3 26.4 23.1 93 0.8 E 17 20 9 11 1010.9 - 3.4
19/01:30am 24.4 26.5 23.1 92 0.9 E 17 22 9 12 1011.0 - 3.4
19/01:00am 24.5 26.1 22.9 91 1.1 ESE 19 22 10 12 1011.4 - 3.4
19/12:30am 24.6 27.0 23.0 91 1.1 ESE 15 19 8 10 1011.8 - 3.4
19/12:00am 24.5 26.5 22.9 91 1.1 E 17 20 9 11 1011.7 1011.4 3.4
 
Date/Time
CST
Temp
°C
App
Temp
°C
Dew
Point
Rel
Hum
%
Delta-T
°C
Wind Press
QNH
hPa
Press
MSL
hPa
Rain
since 9 am
mm
Dir
 
Spd
km/h
Gust
km/h
Spd
kts
Gust
kts
18/11:30pm 24.5 26.1 22.9 91 1.1 ESE 19 26 10 14 1012.1 - 3.4
18/11:00pm 24.6 25.5 22.7 89 1.3 E 22 28 12 15 1012.2 - 3.4
18/10:30pm 24.7 25.6 22.6 88 1.4 E 22 30 12 16 1012.0 - 3.4
18/10:00pm 24.6 26.5 22.7 89 1.3 SE 17 24 9 13 1012.0 - 3.4
18/09:30pm 24.9 26.9 23.0 89 1.3 ESE 17 22 9 12 1011.9 - 3.4
18/09:00pm 25.1 26.2 23.6 91 1.0 SE 24 30 13 16 1012.3 1012.0 3.4
18/08:30pm 25.9 25.3 23.3 85 1.8 E 32 37 17 20 1012.6 - 3.4
18/08:00pm 25.7 28.4 24.1 91 1.1 ENE 17 26 9 14 1012.0 - 3.4
18/07:30pm 25.4 29.4 23.8 91 1.1 ENE 9 11 5 6 1010.7 - 3.4
18/07:00pm 25.2 28.8 23.7 91 1.0 ENE 11 13 6 7 1010.5 - 3.4
18/06:30pm 25.3 28.8 23.5 90 1.2 NNE 11 15 6 8 1010.3 - 3.4
18/06:00pm 25.4 28.0 23.9 91 1.0 NE 17 20 9 11 1009.9 1009.6 3.4
18/05:30pm 25.5 27.8 23.4 88 1.4 ENE 17 20 9 11 1009.4 - 3.4
18/05:00pm 25.3 25.9 24.1 93 0.8 E 28 37 15 20 1009.7 - 3.4
18/04:45pm 26.2 28.0 23.6 85 1.8 ESE 20 28 11 15 1010.0 - 1.8
18/04:30pm 26.5 27.9 23.6 84 2.0 E 22 33 12 18 1009.4 - 1.8
18/04:00pm 26.2 28.3 23.1 83 2.1 E 17 20 9 11 1008.7 - 1.6
18/03:51pm 25.8 25.1 24.1 90 1.2 ESE 35 43 19 23 1008.8 - 1.6
18/03:47pm 25.4 24.2 23.3 88 1.4 ESE 35 41 19 22 1009.0 - 1.6
18/03:40pm 27.3 25.9 24.3 84 2.1 E 39 46 21 25 1009.0 - 0.2
18/03:30pm 30.2 32.4 24.2 70 4.2 NE 20 28 11 15 1008.7 - 0.2
18/03:00pm 31.3 32.9 22.9 61 5.8 NE 19 22 10 12 1008.5 1008.2 0.2
18/02:30pm 31.2 33.8 22.6 60 5.9 E 13 17 7 9 1008.8 - 0.2
18/02:00pm 31.0 33.4 23.0 62 5.5 E 15 22 8 12 1009.3 - 0.2

Other Formats:

Comma delimited format used in spreadsheet applications
http://www.bom.gov.au/fwo/IDD60801/IDD60801.94120.axf

JavaScript Object Notation format (JSON) in row-major order
http://www.bom.gov.au/fwo/IDD60801/IDD60801.94120.json